Portada
METAR-TAF:

METAR-TAF

Aeroports :

Txengdu, Xina

latitud: 30-40N, longitud: 104-01E, altitud: 508 m

Observació

L'informe es va fer fa 34 minuts, a les 01:00 UTC
Vent 2 kt del Sud/Sud-Oest
Temperatura 13°C
Humitat 88%
Pressió 1008 hPa
Visibilitat: 3000 m
boirina

METAR: ZUUU 200100Z 20001MPS 3000 BR NSC 13/11 Q1008 NOSIG

Hora: 09:34 (01:34 UTC)

Pronòstic

L'informe es va fer fa 5 hores i 31 minuts, a les 20:03 UTC
Pronòstic vàlid del 20 a les 00 UTC al 20 a les 24 UTC
Vent 6 kt del Sud/Sud-Oest
Visibilitat: 1900 m
Núvols disperses a una alçada de 5000 ft
boirina
Evolucionant progressivament
l' 20 a les 02 UTC al 20 a les 03 UTC
Visibilitat: 5000 m

TAF: ZUUU 192003Z 2000/2024 20003MPS 1900 BR SCT050 TX23/2007Z TN09/2022Z BECMG 2002/2003 5000

Observacions i pronòstics meteorològics de més de 4000 aeroports (METAR i TAF).

Les estacions disponibles són els punts grocs i vermells al mapa.

Posi el ratolí al punt desitjat per veure el nom de l'estació.

Feu clic per veure les observacions i els pronòstics meteorològics.

Per canviar el mapa: feu clic els botons verds amb una creu de color negre per apropar; al botó verd amb un guió per allunyar la imatge; o en les fletxes verdes per a mapes adjacents.


METAR-TAF: